Time;durP1;ratioP1;P1;durP2;ratioP2;P2;SDS_P1;SDS_P2;PMS_P1;PMS_P2;Temp;Humidity;BMP_temperature;BMP_pressure;BME280_temperature;BME280_humidity;BME280_pressure;Samples;Min_cycle;Max_cycle;Signal;HPM_P1;HPM_P2
2022/09/15 00:00:48;;;;;;;1999.90;999.90;;;;;;;18.16;100.00;98269.25;10313379;23;20052;-77
2022/09/15 00:04:52;;;;;;;1999.90;999.90;;;;;;;18.15;100.00;98255.28;10295813;23;20111;-77
2022/09/15 00:08:59;;;;;;;1999.90;999.90;;;;;;;18.13;100.00;98241.34;10320478;23;20024;-78
2022/09/15 00:13:16;;;;;;;1999.90;999.90;;;;;;;18.13;100.00;98254.47;10321330;23;20082;-77
2022/09/15 00:17:28;;;;;;;1999.90;999.90;;;;;;;18.13;100.00;98251.84;10316578;22;20131;-77
2022/09/15 00:21:38;;;;;;;1999.90;999.90;;;;;;;18.12;100.00;98250.16;10322043;22;20031;-77
2022/09/15 00:25:49;;;;;;;1999.90;999.90;;;;;;;18.10;100.00;98255.50;10323904;22;20461;-77
2022/09/15 00:29:55;;;;;;;1999.90;999.90;;;;;;;18.09;100.00;98258.19;10323583;23;20028;-78
2022/09/15 00:34:10;;;;;;;1999.90;999.90;;;;;;;18.10;100.00;98257.28;10321750;22;20028;-78
2022/09/15 00:38:16;;;;;;;1999.90;999.90;;;;;;;18.09;100.00;98258.19;10340653;22;20417;-77
2022/09/15 00:42:24;;;;;;;1999.90;999.90;;;;;;;18.07;100.00;98258.28;10323697;23;20020;-77
2022/09/15 00:46:38;;;;;;;1999.90;999.90;;;;;;;18.03;100.00;98256.75;10319787;22;20032;-78
2022/09/15 00:50:50;;;;;;;1999.90;999.90;;;;;;;18.05;100.00;98252.25;10320693;23;20020;-77
2022/09/15 00:55:19;;;;;;;1999.90;999.90;;;;;;;18.07;100.00;98246.94;10322959;23;20028;-78
2022/09/15 00:59:40;;;;;;;1999.90;999.90;;;;;;;18.05;100.00;98248.78;10340906;22;20024;-77
2022/09/15 01:03:45;;;;;;;1999.90;999.90;;;;;;;18.08;100.00;98254.72;10322022;22;20478;-78
2022/09/15 01:08:16;;;;;;;1999.90;999.90;;;;;;;18.05;100.00;98256.66;10297541;23;20084;-78
2022/09/15 01:12:34;;;;;;;1999.90;999.90;;;;;;;18.03;100.00;98269.03;10323117;23;20024;-78
2022/09/15 01:17:25;;;;;;;1999.90;999.90;;;;;;;18.03;100.00;98263.78;10317590;22;20766;-78
2022/09/15 01:21:59;;;;;;;1999.90;999.90;;;;;;;18.04;100.00;98266.34;10300588;23;20031;-78
2022/09/15 01:26:52;;;;;;;1999.90;999.90;;;;;;;18.03;100.00;98272.50;10324948;23;20024;-78
2022/09/15 01:31:25;;;;;;;1999.90;999.90;;;;;;;18.02;100.00;98256.84;10310796;22;20105;-78
2022/09/15 01:35:40;;;;;;;1999.90;999.90;;;;;;;18.03;100.00;98262.00;10321622;23;20502;-78
2022/09/15 01:39:53;;;;;;;1999.90;999.90;;;;;;;18.06;100.00;98266.25;10324828;23;20035;-78
2022/09/15 01:44:19;;;;;;;1999.90;999.90;;;;;;;18.06;100.00;98263.63;10297733;23;20111;-78
2022/09/15 01:48:32;;;;;;;1999.90;999.90;;;;;;;18.07;100.00;98262.69;10321914;22;20044;-77
2022/09/15 01:52:43;;;;;;;1999.90;999.90;;;;;;;18.07;100.00;98253.03;10340204;22;20066;-77
2022/09/15 01:56:52;;;;;;;1999.90;999.90;;;;;;;18.08;100.00;98257.34;10324884;22;20020;-77
2022/09/15 02:01:14;;;;;;;1999.90;999.90;;;;;;;18.08;100.00;98261.75;10316721;22;20028;-77
2022/09/15 02:05:39;;;;;;;1999.90;999.90;;;;;;;18.08;100.00;98262.59;10346608;23;20652;-77
2022/09/15 02:09:55;;;;;;;1999.90;999.90;;;;;;;18.08;100.00;98259.13;10303148;23;20026;-77
2022/09/15 02:14:16;;;;;;;1999.90;999.90;;;;;;;18.09;100.00;98245.91;10323785;23;20056;-77
2022/09/15 02:18:33;;;;;;;1999.90;999.90;;;;;;;18.10;100.00;98250.22;10322927;22;20232;-77
2022/09/15 02:22:39;;;;;;;1999.90;999.90;;;;;;;18.08;100.00;98248.63;10345600;22;20016;-77
2022/09/15 02:26:51;;;;;;;1999.90;999.90;;;;;;;18.08;100.00;98244.22;10329085;23;20020;-77
2022/09/15 02:30:58;;;;;;;1999.90;999.90;;;;;;;18.05;100.00;98248.78;10321309;22;20386;-77
2022/09/15 02:35:05;;;;;;;1999.90;999.90;;;;;;;18.04;100.00;98247.09;10327913;22;20047;-77
2022/09/15 02:39:18;;;;;;;1999.90;999.90;;;;;;;18.05;100.00;98246.16;10344335;23;20020;-77
2022/09/15 02:43:23;;;;;;;1999.90;999.90;;;;;;;18.05;100.00;98243.53;10326911;23;20035;-77
2022/09/15 02:47:30;;;;;;;1999.90;999.90;;;;;;;18.03;100.00;98251.50;10322627;22;20119;-77
2022/09/15 02:51:49;;;;;;;1999.90;999.90;;;;;;;18.01;100.00;98252.50;10324861;23;20103;-77
2022/09/15 02:56:24;;;;;;;1999.90;999.90;;;;;;;18.00;100.00;98250.81;8542076;27;20137;-78
2022/09/15 03:00:27;;;;;;;1999.90;999.90;;;;;;;18.03;100.00;98254.13;8510117;27;20066;-78
2022/09/15 03:04:36;;;;;;;1999.90;999.90;;;;;;;18.03;100.00;98251.50;8465419;27;20410;-78
2022/09/15 03:08:49;;;;;;;1999.90;999.90;;;;;;;18.04;100.00;98255.81;8454241;27;20058;-78
2022/09/15 03:12:55;;;;;;;1999.90;999.90;;;;;;;18.05;100.00;98256.66;8466515;28;20536;-78
2022/09/15 03:17:09;;;;;;;1999.90;999.90;;;;;;;18.05;100.00;98259.31;8432057;28;20063;-78
2022/09/15 03:21:20;;;;;;;1999.90;999.90;;;;;;;18.03;100.00;98255.91;8445344;28;20089;-78
2022/09/15 03:25:26;;;;;;;1999.90;999.90;;;;;;;18.02;100.00;98254.22;8440980;28;20041;-78
2022/09/15 03:29:29;;;;;;;1999.90;999.90;;;;;;;18.04;100.00;98260.22;8450180;28;20066;-78
2022/09/15 03:33:41;;;;;;;1999.90;999.90;;;;;;;18.05;100.00;98260.16;8435158;28;20044;-78
2022/09/15 03:37:52;;;;;;;1999.90;999.90;;;;;;;18.05;100.00;98259.31;8458290;28;20104;-79
2022/09/15 03:41:55;;;;;;;1999.90;999.90;;;;;;;18.04;100.00;98257.59;8438640;28;20089;-78
2022/09/15 03:45:59;;;;;;;1999.90;999.90;;;;;;;18.04;100.00;98255.81;8413736;28;20043;-78
2022/09/15 03:50:09;;;;;;;1999.90;999.90;;;;;;;18.00;100.00;98253.44;8432995;28;20054;-78
2022/09/15 03:54:19;;;;;;;1999.90;999.90;;;;;;;17.97;100.00;98251.00;8438480;28;20075;-78
2022/09/15 03:58:27;;;;;;;;;;;;;;;17.98;100.00;98253.53;8455856;28;20043;-78
2022/09/15 04:02:36;;;;;;;1999.90;999.90;;;;;;;17.96;100.00;98257.16;8415665;28;19949;-78
2022/09/15 04:06:43;;;;;;;1999.90;999.90;;;;;;;17.96;100.00;98250.13;8436436;28;20076;-78
2022/09/15 04:10:47;;;;;;;1999.90;999.90;;;;;;;17.97;100.00;98248.38;8435950;28;20051;-78
2022/09/15 04:14:58;;;;;;;;;;;;;;;17.98;100.00;98250.06;8414465;28;20065;-78
2022/09/15 04:19:01;;;;;;;1999.90;999.90;;;;;;;17.95;100.00;98253.66;8423614;28;19955;-77
2022/09/15 04:23:08;;;;;;;1999.90;999.90;;;;;;;17.94;100.00;98249.34;8417751;28;20090;-78
2022/09/15 04:27:20;;;;;;;;;;;;;;;17.95;100.00;98252.81;8433222;28;20044;-78
2022/09/15 04:31:41;;;;;;;1999.90;999.90;;;;;;;17.93;100.00;98250.28;8427627;28;19928;-77
2022/09/15 04:35:50;;;;;;;1999.90;999.90;;;;;;;17.96;100.00;98247.50;8432942;28;20062;-77
2022/09/15 04:40:06;;;;;;;1999.90;999.90;;;;;;;17.93;100.00;98257.31;8403799;28;20074;-78
2022/09/15 04:44:11;;;;;;;1999.90;999.90;;;;;;;17.95;100.00;98261.53;8401710;28;20040;-77
2022/09/15 04:48:18;;;;;;;1999.90;999.90;;;;;;;17.97;100.00;98269.38;8424422;28;20054;-78
2022/09/15 04:52:21;;;;;;;1999.90;999.90;;;;;;;17.95;100.00;98274.69;8424409;28;20445;-78
2022/09/15 04:56:30;;;;;;;1999.90;999.90;;;;;;;17.96;100.00;98273.78;8401513;28;20027;-77
2022/09/15 05:00:38;;;;;;;1999.90;999.90;;;;;;;17.93;100.00;98273.06;8413673;28;20044;-77
2022/09/15 05:04:43;;;;;;;1999.90;999.90;;;;;;;17.88;100.00;98273.31;8426058;28;20044;-78
2022/09/15 05:09:04;;;;;;;1999.90;999.90;;;;;;;17.86;100.00;98288.31;8436615;28;20052;-78
2022/09/15 05:13:11;;;;;;;1999.90;999.90;;;;;;;17.85;100.00;98283.97;8413175;28;20050;-78
2022/09/15 05:17:14;;;;;;;;;;;;;;;17.83;100.00;98288.47;8427131;28;20710;-77
2022/09/15 05:21:17;;;;;;;;;;;;;;;17.78;100.00;98286.09;8394879;28;19934;-77
2022/09/15 05:25:21;;;;;;;;;;;;;;;17.77;100.00;98294.00;8419622;28;20249;-77
2022/09/15 05:29:23;;;;;;;;;;;;;;;17.73;100.00;98295.94;8431653;28;19986;-78
2022/09/15 05:33:26;;;;;;;;;;;;;;;17.71;100.00;98304.84;8399355;28;19931;-78
2022/09/15 05:37:43;;;;;;;;;;;;;;;17.69;100.00;98307.53;8432107;28;20790;-78
2022/09/15 05:41:50;;;;;;;;;;;;;;;17.69;100.00;98314.56;8401269;28;19923;-78
2022/09/15 05:45:55;;;;;;;;;;;;;;;17.62;100.00;98314.00;8389597;28;19989;-77
2022/09/15 05:50:00;;;;;;;;;;;;;;;17.49;99.08;98321.63;8429116;28;19923;-78
2022/09/15 05:54:07;;;;;;;;;;;;;;;17.45;99.07;98335.00;8430586;28;19998;-77
2022/09/15 05:58:09;;;;;;;;;;;;;;;17.34;96.65;98343.38;8412021;28;19923;-78
2022/09/15 06:02:22;;;;;;;;;;;;;;;17.23;95.21;98340.41;8437164;27;19924;-78
2022/09/15 06:06:24;;;;;;;;;;;;;;;17.15;94.85;98346.03;8437585;27;19928;-78
2022/09/15 06:10:26;;;;;;;;;;;;;;;17.06;93.95;98349.13;8442952;27;19976;-78
2022/09/15 06:14:27;;;;;;;;;;;;;;;16.93;92.56;98358.47;8451606;27;19930;-79
2022/09/15 06:18:28;;;;;;;;;;;;;;;16.73;89.70;98364.63;8445005;27;19937;-78
2022/09/15 06:22:30;;;;;;;;;;;;;;;16.52;88.35;98374.28;8467787;27;19973;-78
2022/09/15 06:26:32;;;;;;;;;;;;;;;16.40;88.46;98381.84;8424316;28;19924;-78
2022/09/15 06:30:39;;;;;;;;;;;;;;;16.32;89.70;98383.00;8465068;27;19923;-79
2022/09/15 06:34:41;;;;;;;;;;;;;;;16.23;90.37;98400.91;8414703;28;19924;-78
2022/09/15 06:38:42;;;;;;;;;;;;;;;16.02;91.17;98400.91;8408149;28;19984;-78
2022/09/15 06:42:45;;;;;;;;;;;;;;;16.02;93.25;98403.53;8423658;28;19924;-78
2022/09/15 06:46:54;;;;;;;;;;;;;;;15.97;93.80;98405.47;8423413;28;19928;-78
2022/09/15 06:50:55;;;;;;;;;;;;;;;15.85;93.36;98418.25;8388302;28;20318;-78
2022/09/15 06:54:57;;;;;;;;;;;;;;;15.83;93.34;98420.94;8402868;28;20417;-78
2022/09/15 06:59:02;;;;;;;;;;;;;;;15.74;93.50;98426.53;8357533;28;19998;-79
2022/09/15 07:03:12;;;;;;;;;;;;;;;15.66;94.01;98426.00;8361556;28;20015;-78
2022/09/15 07:07:14;;;;;;;;;;;;;;;15.67;94.65;98425.94;8379842;28;19924;-78
2022/09/15 07:11:25;;;;;;;;;;;;;;;15.68;95.24;98440.72;8368464;28;19979;-78
2022/09/15 07:15:34;;;;;;;;;;;;;;;15.67;95.79;98439.00;8377446;28;20287;-78
2022/09/15 07:19:44;;;;;;;;;;;;;;;15.74;95.92;98449.22;8409064;28;19924;-78
2022/09/15 07:23:48;;;;;;;;;;;;;;;15.81;96.74;98455.94;8387049;28;20377;-78
2022/09/15 07:27:53;;;;;;;;;;;;;;;15.87;96.32;98461.75;8390390;28;19924;-77
2022/09/15 07:31:54;;;;;;;;;;;;;;;15.91;95.12;98460.72;8389333;28;19932;-77
2022/09/15 07:36:03;;;;;;;;;;;;;;;15.99;95.46;98473.50;8382933;28;19925;-78
2022/09/15 07:40:07;;;;;;;;;;;;;;;16.09;95.28;98466.13;8392732;28;19934;-77
2022/09/15 07:44:11;;;;;;;;;;;;;;;16.14;93.44;98479.84;8389182;28;19936;-77
2022/09/15 07:48:13;;;;;;;;;;;;;;;16.27;94.45;98474.06;8388560;28;19920;-77
2022/09/15 07:52:14;;;;;;;;;;;;;;;16.39;94.28;98482.31;8390503;28;19989;-77
2022/09/15 07:56:23;;;;;;;;;;;;;;;16.46;93.28;98481.97;8439015;28;19988;-77
2022/09/15 08:00:25;;;;;;;;;;;;;;;16.57;93.74;98489.41;8398642;28;19924;-77
2022/09/15 08:04:27;;;;;;;;;;;;;;;16.64;93.10;98493.44;8414687;28;20364;-77
2022/09/15 08:08:28;;;;;;;;;;;;;;;16.69;92.06;98491.50;8437690;28;20473;-77
2022/09/15 08:12:30;;;;;;;;;;;;;;;16.72;90.92;98507.13;8413243;28;20317;-77
2022/09/15 08:16:34;;;;;;;;;;;;;;;16.77;90.42;98514.78;8440566;27;19923;-76
2022/09/15 08:20:40;;;;;;;;;;;;;;;16.85;91.25;98521.38;8461497;27;19923;-78
2022/09/15 08:24:42;;;;;;;;;;;;;;;16.90;91.03;98531.69;8465198;27;19931;-77
2022/09/15 08:28:50;;;;;;;;;;;;;;;16.96;90.45;98528.78;8446547;27;19924;-78
2022/09/15 08:32:52;;;;;;;;;;;;;;;17.07;89.33;98533.56;8465404;27;20030;-77
2022/09/15 08:36:53;;;;;;;;;;;;;;;17.26;89.22;98541.47;8467173;27;19925;-77
2022/09/15 08:41:03;;;;;;;;;;;;;;;17.50;89.39;98546.44;8463819;27;20022;-77
2022/09/15 08:45:10;;;;;;;;;;;;;;;17.76;88.66;98552.28;8427332;27;19927;-78
2022/09/15 08:49:17;;;;;;;;;;;;;;;18.00;87.78;98551.13;8456619;27;20694;-79
2022/09/15 08:53:48;;;;;;;;;;;;;;;18.24;86.68;98553.47;8433521;27;20221;-79
2022/09/15 08:57:53;;;;;;;;;;;;;;;18.42;83.40;98552.56;8446613;27;21251;-79
2022/09/15 09:02:00;;;;;;;;;;;;;;;18.56;81.33;98563.25;8441956;28;19924;-79
2022/09/15 09:06:27;;;;;;;;;;;;;;;18.66;81.00;98572.41;8440164;27;20276;-80
2022/09/15 09:10:43;;;;;;;;;;;;;;;18.67;79.33;98575.88;8442112;27;19949;-79
2022/09/15 09:14:58;;;;;;;;;;;;;;;18.63;78.44;98585.72;8440343;27;19932;-79
2022/09/15 09:19:05;;;;;;;;;;;;;;;18.62;78.78;98588.38;8380605;28;19924;-79
2022/09/15 09:23:10;;;;;;;;;;;;;;;18.86;78.92;98591.63;8400557;28;20393;-79
2022/09/15 09:27:14;;;;;;;;;;;;;;;19.21;78.61;98590.66;8401576;28;19920;-80
2022/09/15 09:31:20;;;;;;;;;;;;;;;19.59;76.65;98599.19;8420345;27;19955;-78
2022/09/15 09:35:21;;;;;;;;;;;;;;;19.81;75.90;98588.31;8448161;27;19927;-78
2022/09/15 09:39:24;;;;;;;;;;;;;;;19.95;74.75;98597.25;8432553;27;20006;-79
2022/09/15 09:43:27;;;;;;;;;;;;;;;20.22;73.36;98593.91;8428163;27;19927;-79
2022/09/15 09:47:35;;;;;;;;;;;;;;;20.30;73.46;98598.78;8431027;27;19935;-79
2022/09/15 09:51:56;;;;;;;;;;;;;;;20.42;71.89;98591.97;8445879;27;19937;-79
2022/09/15 09:56:16;;;;;;;;;;;;;;;20.59;66.54;98585.72;8414375;27;19928;-79
2022/09/15 10:00:37;;;;;;;;;;;;;;;20.67;66.11;98591.44;8430972;27;20344;-80
2022/09/15 10:04:39;;;;;;;;;;;;;;;20.78;66.18;98589.84;8429008;27;20550;-77
2022/09/15 10:09:13;;;;;;;;;;;;;;;20.94;65.89;98594.22;8414620;27;20314;-80
2022/09/15 10:13:15;;;;;;;;;;;;;;;21.10;64.71;98571.25;8405654;27;19940;-79
2022/09/15 10:17:18;;;;;;;;;;;;;;;21.25;64.88;98575.63;8430338;27;19992;-79
2022/09/15 10:21:26;;;;;;;;;;;;;;;21.23;63.09;98577.50;8448340;27;19928;-80
2022/09/15 10:25:30;;;;;;;;;;;;;;;21.25;61.99;98578.28;8444116;28;19923;-79
2022/09/15 10:29:52;;;;;;;;;;;;;;;21.10;63.53;98580.00;8446963;28;19928;-80
2022/09/15 10:33:53;;;;;;;;;;;;;;;21.26;62.62;98587.88;8440340;28;19997;-79
2022/09/15 10:38:05;;;;;;;;;;;;;;;21.45;62.06;98590.25;8426470;28;20358;-81
2022/09/15 10:42:12;;;;;;;;;;;;;;;21.70;60.08;98585.13;8442971;28;20403;-81
2022/09/15 10:46:24;;;;;;;;;;;;;;;21.61;61.98;98587.53;8446684;27;19928;-81
2022/09/15 10:50:30;;;;;;;;;;;;;;;21.75;60.28;98589.31;8447296;28;20278;-80
2022/09/15 10:54:59;;;;;;;;;;;;;;;21.54;61.59;98589.66;8432187;28;19924;-81
2022/09/15 10:59:38;;;;;;;;;;;;;;;21.64;62.73;98584.69;8439310;28;19931;-81
2022/09/15 11:04:06;;;;;;;;;;;;;;;21.98;59.90;98580.75;8433525;28;19919;-80
2022/09/15 11:08:14;;;;;;;;;;;;;;;22.12;58.69;98586.06;8401035;28;19966;-79
2022/09/15 11:12:28;;;;;;;;;;;;;;;21.98;58.32;98581.59;8440688;28;19923;-78
2022/09/15 11:16:32;;;;;;;;;;;;;;;22.09;58.04;98586.25;8408752;28;20619;-79
2022/09/15 11:21:01;;;;;;;;;;;;;;;22.34;56.65;98577.56;8442652;28;20627;-78
2022/09/15 11:25:10;;;;;;;;;;;;;;;22.44;53.56;98570.75;8419566;28;19974;-78
2022/09/15 11:29:24;;;;;;;;;;;;;;;22.63;53.62;98591.53;8424393;27;19927;-79
2022/09/15 11:33:41;;;;;;;;;;;;;;;22.59;51.48;98590.03;8438337;27;19930;-78
2022/09/15 11:37:51;;;;;;;;;;;;;;;22.36;51.95;98598.63;8438278;27;19931;-78
2022/09/15 11:41:58;;;;;;;;;;;;;;;22.38;53.32;98602.88;8435644;27;20732;-78
2022/09/15 11:46:10;;;;;;;;;;;;;;;22.21;53.02;98598.66;8447414;27;19923;-78
2022/09/15 11:50:29;;;;;;;;;;;;;;;22.23;51.66;98614.44;8443238;28;19924;-78
2022/09/15 11:54:43;;;;;;;;;;;;;;;22.04;52.86;98617.38;8431034;28;20428;-78
2022/09/15 11:58:54;;;;;;;;;;;;;;;22.08;52.03;98615.41;8449338;28;19927;-78
2022/09/15 12:02:55;;;;;;;;;;;;;;;22.40;52.42;98608.06;8442757;27;20369;-78
2022/09/15 12:07:02;;;;;;;;;;;;;;;22.47;52.27;98622.59;8417532;27;19923;-78
2022/09/15 12:11:17;;;;;;;;;;;;;;;22.18;51.26;98614.75;8417110;28;20011;-78
2022/09/15 12:15:26;;;;;;;;;;;;;;;21.87;50.28;98626.38;8434359;28;20596;-78
2022/09/15 12:19:32;;;;;;;;;;;;;;;21.97;53.10;98616.94;8421402;27;19935;-78
2022/09/15 12:23:39;;;;;;;;;;;;;;;22.08;49.33;98608.31;8429045;28;20010;-78
2022/09/15 12:27:41;;;;;;;;;;;;;;;22.40;50.45;98618.63;8438831;28;20431;-78
2022/09/15 12:31:43;;;;;;;;;;;;;;;22.67;50.53;98605.41;8426917;28;20012;-78
2022/09/15 12:35:52;;;;;;;;;;;;;;;22.82;47.47;98605.28;8443893;28;19992;-78
2022/09/15 12:40:32;;;;;;;;;;;;;;;23.09;48.03;98602.53;8406057;28;20550;-78
2022/09/15 12:44:43;;;;;;;;;;;;;;;22.82;46.57;98610.56;8424657;28;19967;-78
2022/09/15 12:48:47;;;;;;;;;;;;;;;22.49;49.56;98607.47;8430151;28;19923;-78
2022/09/15 12:53:13;;;;;;;;;;;;;;;22.12;49.22;98611.66;8437449;27;19923;-79
2022/09/15 12:57:33;;;;;;;;;;;;;;;21.95;49.71;98612.69;8428050;27;19931;-78
2022/09/15 13:01:48;;;;;;;;;;;;;;;21.93;49.68;98610.13;8434060;28;19923;-79
2022/09/15 13:06:10;;;;;;;;;;;;;;;21.77;46.97;98614.69;8436887;27;19924;-79
2022/09/15 13:10:33;;;;;;;;;;;;;;;22.07;47.84;98606.63;8448429;27;19927;-79
2022/09/15 13:14:38;;;;;;;;;;;;;;;22.27;46.72;98608.03;8446153;27;19980;-79
2022/09/15 13:18:43;;;;;;;;;;;;;;;22.48;48.23;98605.78;8430845;27;19923;-78
2022/09/15 13:22:55;;;;;;;;;;;;;;;22.77;47.15;98606.47;8446701;27;20330;-79
2022/09/15 13:26:56;;;;;;;;;;;;;;;22.58;46.75;98610.34;8411725;27;19923;-80
2022/09/15 13:31:28;;;;;;;;;;;;;;;22.24;46.58;98613.47;8439025;27;19928;-80
2022/09/15 13:35:43;;;;;;;;;;;;;;;21.99;49.33;98622.97;8437500;27;19965;-79
2022/09/15 13:39:59;;;;;;;;;;;;;;;21.78;50.01;98618.19;8437256;28;19927;-79
2022/09/15 13:44:16;;;;;;;;;;;;;;;21.64;50.01;98626.97;8440931;28;20310;-80
2022/09/15 13:49:03;;;;;;;;;;;;;;;21.47;49.42;98625.34;8454675;27;19955;-80
2022/09/15 13:53:22;;;;;;;;;;;;;;;21.49;51.14;98625.25;8437337;27;20574;-80
2022/09/15 13:57:25;;;;;;;;;;;;;;;21.53;52.66;98622.31;8447221;27;19923;-80
2022/09/15 14:01:47;;;;;;;;;;;;;;;21.53;51.31;98614.41;8438675;28;19924;-79
2022/09/15 14:06:14;;;;;;;;;;;;;;;21.60;52.38;98628.09;8454712;27;19972;-81
2022/09/15 14:10:19;;;;;;;;;;;;;;;21.56;52.71;98622.16;8458779;27;19976;-79
2022/09/15 14:14:30;;;;;;;;;;;;;;;21.56;52.91;98623.94;8446774;27;20013;-80
2022/09/15 14:18:41;;;;;;;;;;;;;;;21.41;49.84;98625.72;8423768;28;19924;-79
2022/09/15 14:22:48;;;;;;;;;;;;;;;21.34;52.15;98619.09;8438545;27;20361;-80
2022/09/15 14:26:49;;;;;;;;;;;;;;;21.26;52.79;98624.00;8423359;27;19924;-80
2022/09/15 14:30:58;;;;;;;;;;;;;;;21.17;53.96;98613.97;8431365;27;19937;-80
2022/09/15 14:35:04;;;;;;;;;;;;;;;21.13;52.92;98624.69;8439640;27;19934;-78
2022/09/15 14:39:15;;;;;;;;;;;;;;;21.08;53.77;98620.66;8453351;27;19927;-80
2022/09/15 14:43:29;;;;;;;;;;;;;;;21.00;51.99;98617.59;8429852;28;20018;-80
2022/09/15 14:47:30;;;;;;;;;;;;;;;20.91;52.72;98615.50;8446896;28;20041;-80
2022/09/15 14:51:33;;;;;;;;;;;;;;;20.85;53.98;98621.16;8445123;28;20252;-79
2022/09/15 14:55:39;;;;;;;;;;;;;;;20.80;53.01;98618.78;8416623;28;20267;-80
2022/09/15 14:59:43;;;;;;;;;;;;;;;20.68;51.62;98616.88;8394201;28;20279;-80
2022/09/15 15:03:49;;;;;;;;;;;;;;;20.58;53.50;98621.81;8386396;28;19935;-79
2022/09/15 15:07:51;;;;;;;;;;;;;;;20.49;53.88;98619.72;8395083;28;19928;-79
2022/09/15 15:11:55;;;;;;;;;;;;;;;20.45;54.22;98620.81;8403126;28;20337;-78
2022/09/15 15:15:57;;;;;;;;;;;;;;;20.44;55.06;98621.75;8406147;28;19927;-80
2022/09/15 15:20:00;;;;;;;;;;;;;;;20.42;55.47;98618.34;8405402;28;19985;-80
2022/09/15 15:24:16;;;;;;;;;;;;;;;20.38;56.00;98620.28;8405097;28;20197;-79
2022/09/15 15:28:27;;;;;;;;;;;;;;;20.36;55.63;98627.44;8409864;28;19924;-79
2022/09/15 15:32:33;;;;;;;;;;;;;;;20.31;56.94;98632.13;8403778;28;19946;-79
2022/09/15 15:36:35;;;;;;;;;;;;;;;20.32;57.22;98631.19;8407708;28;19931;-80
2022/09/15 15:40:38;;;;;;;;;;;;;;;20.30;55.84;98629.56;8412661;28;19924;-80
2022/09/15 15:45:05;;;;;;;;;;;;;;;20.26;57.40;98636.78;8416030;28;19934;-80
2022/09/15 15:49:13;;;;;;;;;;;;;;;20.22;56.03;98638.75;8407633;28;19985;-80
2022/09/15 15:53:15;;;;;;;;;;;;;;;20.17;55.00;98632.03;8377269;28;19924;-80
2022/09/15 15:57:21;;;;;;;;;;;;;;;20.20;56.75;98629.22;8409194;28;19924;-80
2022/09/15 16:01:22;;;;;;;;;;;;;;;20.12;57.89;98634.94;8403876;28;19924;-80
2022/09/15 16:05:25;;;;;;;;;;;;;;;20.04;61.46;98641.53;8395586;28;19984;-80
2022/09/15 16:09:26;;;;;;;;;;;;;;;20.07;57.80;98639.59;8396725;28;20566;-79
2022/09/15 16:13:33;;;;;;;;;;;;;;;20.08;58.78;98633.38;8347802;28;19935;-80
2022/09/15 16:17:35;;;;;;;;;;;;;;;20.01;57.85;98637.28;8392917;28;20008;-79
2022/09/15 16:21:41;;;;;;;;;;;;;;;19.96;57.89;98638.50;8397376;28;20557;-80
2022/09/15 16:25:55;;;;;;;;;;;;;;;19.88;61.14;98629.19;8376885;28;20408;-80
2022/09/15 16:29:57;;;;;;;;;;;;;;;19.81;61.42;98630.47;8386553;28;19929;-79
2022/09/15 16:34:01;;;;;;;;;;;;;;;19.76;62.77;98635.16;8430379;28;19931;-80
2022/09/15 16:38:18;;;;;;;;;;;;;;;19.66;64.22;98638.34;8428623;28;19976;-79
2022/09/15 16:42:27;;;;;;;;;;;;;;;19.49;64.65;98642.69;8436912;28;19934;-79
2022/09/15 16:46:30;;;;;;;;;;;;;;;19.26;67.99;98645.69;8420207;28;19924;-78
2022/09/15 16:50:33;;;;;;;;;;;;;;;19.14;70.07;98644.53;8389415;28;20024;-80
2022/09/15 16:54:36;;;;;;;;;;;;;;;18.94;70.15;98653.44;8404106;28;19931;-79
2022/09/15 16:58:50;;;;;;;;;;;;;;;18.85;69.59;98650.38;8411096;28;20018;-80
2022/09/15 17:03:02;;;;;;;;;;;;;;;18.63;71.09;98656.72;8415143;28;19920;-79
2022/09/15 17:07:16;;;;;;;;;;;;;;;18.54;71.77;98644.00;8409960;28;19923;-79
2022/09/15 17:11:29;;;;;;;;;;;;;;;18.40;72.64;98649.06;8429131;28;20388;-79
2022/09/15 17:15:34;;;;;;;;;;;;;;;18.15;71.58;98652.03;8420033;28;19934;-79
2022/09/15 17:19:35;;;;;;;;;;;;;;;18.06;73.36;98653.28;8418604;28;19923;-79
2022/09/15 17:23:47;;;;;;;;;;;;;;;17.90;74.70;98652.28;8416580;28;20406;-79
2022/09/15 17:27:55;;;;;;;;;;;;;;;17.77;75.09;98656.38;8432113;28;19923;-79
2022/09/15 17:32:28;;;;;;;;;;;;;;;17.65;76.10;98659.56;8413335;28;19946;-79
2022/09/15 17:36:36;;;;;;;;;;;;;;;17.56;75.75;98659.94;8420482;28;20403;-80
2022/09/15 17:40:40;;;;;;;;;;;;;;;17.46;76.45;98665.63;8426762;28;19923;-79
2022/09/15 17:44:58;;;;;;;;;;;;;;;17.32;77.02;98664.50;8411817;28;19927;-79
2022/09/15 17:48:59;;;;;;;;;;;;;;;17.22;78.15;98658.78;8403335;28;19923;-80
2022/09/15 17:53:01;;;;;;;;;;;;;;;17.10;77.45;98643.59;8426480;28;19930;-79
2022/09/15 17:57:05;;;;;;;;;;;;;;;16.98;77.02;98652.81;8418314;28;19955;-79
2022/09/15 18:01:14;;;;;;;;;;;;;;;16.80;77.08;98648.34;8418777;28;19920;-79
2022/09/15 18:05:26;;;;;;;;;;;;;;;16.69;76.78;98658.41;8407027;28;19947;-79
2022/09/15 18:09:27;;;;;;;;;;;;;;;16.53;76.65;98663.41;8409582;28;20543;-79
2022/09/15 18:13:36;;;;;;;;;;;;;;;16.42;76.12;98670.84;8408636;28;19931;-79
2022/09/15 18:17:44;;;;;;;;;;;;;;;16.38;77.37;98672.75;8396441;28;19985;-78
2022/09/15 18:21:50;;;;;;;;;;;;;;;16.33;77.87;98678.13;8392106;28;19923;-79
2022/09/15 18:25:51;;;;;;;;;;;;;;;16.31;79.11;98685.22;8398175;28;19949;-79
2022/09/15 18:29:53;;;;;;;;;;;;;;;16.29;79.88;98696.66;8415631;28;19928;-79
2022/09/15 18:34:01;;;;;;;;;;;;;;;16.24;80.30;98689.00;8403211;28;19925;-79
2022/09/15 18:38:02;;;;;;;;;;;;;;;16.18;80.18;98693.63;8410731;28;19924;-79
2022/09/15 18:42:08;;;;;;;;;;;;;;;16.10;80.56;98700.91;8420175;28;19925;-79
2022/09/15 18:46:14;;;;;;;;;;;;;;;16.08;81.18;98706.19;8390375;28;20060;-78
2022/09/15 18:50:20;;;;;;;;;;;;;;;16.06;81.40;98707.16;8389521;28;19955;-79
2022/09/15 18:54:25;;;;;;;;;;;;;;;16.05;80.48;98710.72;8403190;28;19937;-80
2022/09/15 18:58:28;;;;;;;;;;;;;;;16.07;80.94;98714.13;8446034;28;19923;-80
2022/09/15 19:02:30;;;;;;;;;;;;;;;16.06;81.37;98712.41;8448924;28;20741;-79
2022/09/15 19:06:31;;;;;;;;;;;;;;;16.05;82.31;98735.13;8414806;28;20676;-80
2022/09/15 19:10:33;;;;;;;;;;;;;;;16.06;82.62;98728.13;8433237;28;19924;-80
2022/09/15 19:14:34;;;;;;;;;;;;;;;16.06;82.77;98739.44;8452337;28;20014;-80
2022/09/15 19:18:36;;;;;;;;;;;;;;;16.03;82.26;98734.34;8435559;28;20026;-80
2022/09/15 19:22:45;;;;;;;;;;;;;;;16.02;82.36;98730.84;8448288;28;19992;-80
2022/09/15 19:26:46;;;;;;;;;;;;;;;16.02;82.33;98740.47;8421969;28;19973;-80
2022/09/15 19:30:48;;;;;;;;;;;;;;;15.98;82.96;98731.03;8454759;28;19927;-80
2022/09/15 19:34:56;;;;;;;;;;;;;;;15.93;82.90;98730.34;8443773;28;20026;-80
2022/09/15 19:38:59;;;;;;;;;;;;;;;15.90;82.19;98731.31;8451567;27;19941;-80
2022/09/15 19:43:00;;;;;;;;;;;;;;;15.91;83.50;98719.06;8441374;27;20256;-80
2022/09/15 19:47:02;;;;;;;;;;;;;;;15.93;84.88;98739.03;8441490;27;19946;-80
2022/09/15 19:51:08;;;;;;;;;;;;;;;15.88;84.59;98735.75;8455034;27;20063;-80
2022/09/15 19:55:10;;;;;;;;;;;;;;;15.82;84.23;98735.13;8425195;28;19932;-80
2022/09/15 19:59:12;;;;;;;;;;;;;;;15.79;84.06;98736.06;8402064;28;20400;-80
2022/09/15 20:03:13;;;;;;;;;;;;;;;15.74;84.46;98742.38;8397630;28;20480;-80
2022/09/15 20:07:15;;;;;;;;;;;;;;;15.72;85.00;98745.06;8395623;28;19935;-80
2022/09/15 20:11:17;;;;;;;;;;;;;;;15.64;85.09;98744.50;8408072;28;19928;-80
2022/09/15 20:15:23;;;;;;;;;;;;;;;15.57;85.35;98741.19;8411813;28;19925;-79
2022/09/15 20:19:24;;;;;;;;;;;;;;;15.50;85.95;98746.69;8379853;28;19925;-78
2022/09/15 20:23:25;;;;;;;;;;;;;;;15.47;85.88;98742.41;8378431;28;19931;-79
2022/09/15 20:27:27;;;;;;;;;;;;;;;15.45;86.20;98746.00;8407816;28;19996;-78
2022/09/15 20:31:29;;;;;;;;;;;;;;;15.32;86.24;98750.78;8403746;28;19928;-78
2022/09/15 20:35:31;;;;;;;;;;;;;;;15.30;86.79;98747.38;8394246;28;20682;-78
2022/09/15 20:39:32;;;;;;;;;;;;;;;15.30;87.17;98755.22;8381939;28;19981;-78